Time;durP1;ratioP1;P1;durP2;ratioP2;P2;SDS_P1;SDS_P2;PMS_P1;PMS_P2;Temp;Humidity;BMP_temperature;BMP_pressure;BME280_temperature;BME280_humidity;BME280_pressure;Samples;Min_cycle;Max_cycle;Signal;HPM_P1;HPM_P2
2023/09/20 00:00:53;;;;;;;;;;;;;;;19.88;100.00;100812.53;5303794;28;19913;-72
2023/09/20 00:03:25;;;;;;;;;;;;;;;19.84;100.00;100807.81;5298868;28;19924;-71
2023/09/20 00:05:56;;;;;;;;;;;;;;;19.78;100.00;100808.59;5297413;28;19920;-71
2023/09/20 00:08:29;;;;;;;;;;;;;;;19.74;100.00;100812.66;5303587;28;21115;-71
2023/09/20 00:11:01;;;;;;;;;;;;;;;19.74;100.00;100810.00;5304573;28;19956;-72
2023/09/20 00:13:33;;;;;;;;;;;;;;;19.69;100.00;100807.88;5303354;28;19975;-71
2023/09/20 00:16:04;;;;;;;;;;;;;;;19.62;100.00;100802.53;5300938;28;19915;-72
2023/09/20 00:18:36;;;;;;;;;;;;;;;19.60;100.00;100807.16;5303535;28;20402;-72
2023/09/20 00:21:07;;;;;;;;;;;;;;;19.59;100.00;100802.06;5301610;28;19926;-72
2023/09/20 00:23:40;;;;;;;;;;;;;;;19.55;100.00;100806.91;5301562;28;21318;-71
2023/09/20 00:26:13;;;;;;;;;;;;;;;19.51;100.00;100800.34;5305529;28;19939;-72
2023/09/20 00:28:48;;;;;;;;;;;;;;;19.47;100.00;100800.88;5303780;28;20380;-71
2023/09/20 00:31:19;;;;;;;;;;;;;;;19.42;100.00;100793.50;5307526;28;20349;-72
2023/09/20 00:33:52;;;;;;;;;;;;;;;19.37;100.00;100791.41;5298732;28;19935;-72
2023/09/20 00:36:23;;;;;;;;;;;;;;;19.37;100.00;100793.25;5309210;28;19916;-71
2023/09/20 00:38:57;;;;;;;;;;;;;;;19.36;100.00;100795.09;5302070;28;19942;-72
2023/09/20 00:41:28;;;;;;;;;;;;;;;19.35;100.00;100787.28;5302894;28;19920;-72
2023/09/20 00:44:00;;;;;;;;;;;;;;;19.30;100.00;100793.16;5306583;28;19920;-72
2023/09/20 00:46:31;;;;;;;;;;;;;;;19.28;100.00;100789.03;5304161;28;20400;-71
2023/09/20 00:49:02;;;;;;;;;;;;;;;19.29;100.00;100788.06;5300862;28;19920;-72
2023/09/20 00:51:33;;;;;;;;;;;;;;;19.30;100.00;100787.03;5302784;28;19963;-72
2023/09/20 00:54:05;;;;;;;;;;;;;;;19.35;100.00;100781.97;5302392;28;20394;-72
2023/09/20 00:56:39;;;;;;;;;;;;;;;19.37;100.00;100788.75;5303199;28;19913;-72
2023/09/20 00:59:11;;;;;;;;;;;;;;;19.38;100.00;100792.22;5305633;28;19920;-71
2023/09/20 01:01:42;;;;;;;;;;;;;;;19.38;100.00;100784.25;5309599;28;19920;-71
2023/09/20 01:04:13;;;;;;;;;;;;;;;19.39;100.00;100792.03;5309184;28;20356;-72
2023/09/20 01:06:46;;;;;;;;;;;;;;;19.43;100.00;100787.16;5306629;28;20006;-72
2023/09/20 01:09:17;;;;;;;;;;;;;;;19.42;100.00;100790.84;5297596;28;19916;-72
2023/09/20 01:11:48;;;;;;;;;;;;;;;19.42;100.00;100796.16;5309428;28;19922;-72
2023/09/20 01:14:20;;;;;;;;;;;;;;;19.41;100.00;100790.00;5309783;28;20380;-72
2023/09/20 01:16:53;;;;;;;;;;;;;;;19.42;100.00;100790.84;5306804;28;20374;-72
2023/09/20 01:19:25;;;;;;;;;;;;;;;19.40;100.00;100779.59;5310604;28;19919;-72
2023/09/20 01:21:56;;;;;;;;;;;;;;;19.40;100.00;100782.25;5311304;28;20296;-72
2023/09/20 01:24:30;;;;;;;;;;;;;;;19.39;100.00;100785.88;5308184;28;20043;-73
2023/09/20 01:27:03;;;;;;;;;;;;;;;19.35;100.00;100784.63;5307649;28;19920;-73
2023/09/20 01:29:35;;;;;;;;;;;;;;;19.35;100.00;100774.81;5303687;28;19966;-72
2023/09/20 01:32:07;;;;;;;;;;;;;;;19.34;100.00;100773.19;5308631;28;19924;-72
2023/09/20 01:34:38;;;;;;;;;;;;;;;19.33;100.00;100768.88;5309656;28;19915;-72
2023/09/20 01:37:09;;;;;;;;;;;;;;;19.28;100.00;100768.66;5312117;28;19916;-72
2023/09/20 01:39:40;;;;;;;;;;;;;;;19.26;100.00;100765.34;5308525;28;20327;-72
2023/09/20 01:42:11;;;;;;;;;;;;;;;19.25;100.00;100765.53;5313443;28;20033;-72
2023/09/20 01:44:43;;;;;;;;;;;;;;;19.24;100.00;100763.88;5310510;28;20287;-72
2023/09/20 01:47:14;;;;;;;;;;;;;;;19.25;100.00;100760.22;5309822;28;19912;-72
2023/09/20 01:49:46;;;;;;;;;;;;;;;19.30;100.00;100755.16;5314835;28;19949;-73
2023/09/20 01:52:17;;;;;;;;;;;;;;;19.30;100.00;100758.63;5316894;28;19923;-73
2023/09/20 01:54:50;;;;;;;;;;;;;;;19.30;100.00;100749.84;5311810;28;19916;-72
2023/09/20 01:57:21;;;;;;;;;;;;;;;19.35;100.00;100747.44;5309062;28;19992;-73
2023/09/20 01:59:52;;;;;;;;;;;;;;;19.39;100.00;100749.50;5304432;28;20088;-73
2023/09/20 02:02:23;;;;;;;;;;;;;;;19.40;100.00;100751.19;5310778;28;20254;-73
2023/09/20 02:04:55;;;;;;;;;;;;;;;19.47;100.00;100745.09;5310338;28;19920;-72
2023/09/20 02:07:26;;;;;;;;;;;;;;;19.50;100.00;100742.06;5313026;28;19923;-73
2023/09/20 02:09:58;;;;;;;;;;;;;;;19.56;100.00;100738.66;5307841;28;19916;-72
2023/09/20 02:12:29;;;;;;;;;;;;;;;19.59;100.00;100739.09;5313214;28;19920;-72
2023/09/20 02:15:01;;;;;;;;;;;;;;;19.59;100.00;100739.09;5307121;28;19924;-72
2023/09/20 02:17:36;;;;;;;;;;;;;;;19.60;100.00;100730.09;5301133;28;19920;-73
2023/09/20 02:20:08;;;;;;;;;;;;;;;19.63;100.00;100731.59;5285609;28;19915;-72
2023/09/20 02:22:40;;;;;;;;;;;;;;;19.69;100.00;100734.28;5305699;28;20372;-72
2023/09/20 02:25:11;;;;;;;;;;;;;;;19.74;100.00;100735.56;5302050;28;20011;-72
2023/09/20 02:27:43;;;;;;;;;;;;;;;19.75;100.00;100718.59;5308411;28;19968;-72
2023/09/20 02:30:19;;;;;;;;;;;;;;;19.73;100.00;100717.94;5312641;28;20018;-72
2023/09/20 02:32:52;;;;;;;;;;;;;;;19.72;100.00;100711.81;5310189;28;19916;-72
2023/09/20 02:35:25;;;;;;;;;;;;;;;19.78;100.00;100720.88;5310717;28;20015;-72
2023/09/20 02:37:56;;;;;;;;;;;;;;;19.73;100.00;100718.75;5305447;28;19926;-72
2023/09/20 02:40:27;;;;;;;;;;;;;;;19.73;100.00;100723.25;5303040;28;19916;-72
2023/09/20 02:42:58;;;;;;;;;;;;;;;19.74;100.00;100717.78;5306684;28;19920;-72
2023/09/20 02:45:30;;;;;;;;;;;;;;;19.75;100.00;100711.44;5308802;28;19923;-72
2023/09/20 02:48:06;;;;;;;;;;;;;;;19.78;100.00;100705.72;5306226;28;20572;-72
2023/09/20 02:50:37;;;;;;;;;;;;;;;19.76;100.00;100710.41;5305065;28;19978;-72
2023/09/20 02:53:09;;;;;;;;;;;;;;;19.78;100.00;100702.25;5307155;28;19916;-72
2023/09/20 02:55:40;;;;;;;;;;;;;;;19.77;100.00;100695.28;5307064;28;20460;-72
2023/09/20 02:58:13;;;;;;;;;;;;;;;19.73;100.00;100702.81;5306301;28;19924;-72
2023/09/20 03:00:50;;;;;;;;;;;;;;;19.73;100.00;100694.03;5307993;28;19926;-72
2023/09/20 03:03:23;;;;;;;;;;;;;;;19.69;100.00;100690.94;5304197;28;19927;-72
2023/09/20 03:05:54;;;;;;;;;;;;;;;19.63;100.00;100699.69;5305393;28;20002;-72
2023/09/20 03:08:25;;;;;;;;;;;;;;;19.63;100.00;100697.03;5311665;28;20014;-72
2023/09/20 03:10:56;;;;;;;;;;;;;;;19.56;100.00;100686.31;5304724;28;19928;-72
2023/09/20 03:13:27;;;;;;;;;;;;;;;19.55;100.00;100683.88;5308734;28;19915;-72
2023/09/20 03:16:01;;;;;;;;;;;;;;;19.56;100.00;100682.84;5306446;28;19944;-72
2023/09/20 03:18:33;;;;;;;;;;;;;;;19.52;100.00;100677.09;5304731;28;19924;-72
2023/09/20 03:21:10;;;;;;;;;;;;;;;19.52;100.00;100678.94;5306979;28;19916;-72
2023/09/20 03:23:42;;;;;;;;;;;;;;;19.42;100.00;100672.09;5307434;28;19924;-72
2023/09/20 03:26:16;;;;;;;;;;;;;;;19.43;100.00;100672.91;5307136;28;19959;-72
2023/09/20 03:28:48;;;;;;;;;;;;;;;19.43;100.00;100660.47;5288451;28;19933;-72
2023/09/20 03:31:22;;;;;;;;;;;;;;;19.42;100.00;100660.66;5314931;28;19957;-72
2023/09/20 03:33:53;;;;;;;;;;;;;;;19.33;100.00;100662.63;5311464;28;20379;-72
2023/09/20 03:36:25;;;;;;;;;;;;;;;19.34;100.00;100676.72;5307905;28;19925;-72
2023/09/20 03:38:57;;;;;;;;;;;;;;;19.28;100.00;100681.00;5310506;28;19916;-72
2023/09/20 03:41:29;;;;;;;;;;;;;;;19.28;100.00;100681.00;5308177;28;20353;-72
2023/09/20 03:44:00;;;;;;;;;;;;;;;19.23;100.00;100679.91;5305729;28;19930;-72
2023/09/20 03:46:32;;;;;;;;;;;;;;;19.24;100.00;100682.34;5311744;28;19919;-72
2023/09/20 03:49:03;;;;;;;;;;;;;;;19.22;100.00;100681.75;5311037;28;19923;-72
2023/09/20 03:51:34;;;;;;;;;;;;;;;19.19;100.00;100682.94;5306543;28;19924;-72
2023/09/20 03:54:08;;;;;;;;;;;;;;;19.10;100.00;100675.31;5309189;28;20308;-72
2023/09/20 03:56:41;;;;;;;;;;;;;;;19.13;100.00;100680.22;5309016;28;19919;-72
2023/09/20 03:59:12;;;;;;;;;;;;;;;19.01;100.00;100681.72;5308325;28;19924;-72
2023/09/20 04:01:44;;;;;;;;;;;;;;;19.00;100.00;100674.78;5303769;28;19916;-72
2023/09/20 04:04:16;;;;;;;;;;;;;;;19.00;100.00;100669.47;5309737;28;19924;-72
2023/09/20 04:06:47;;;;;;;;;;;;;;;18.94;100.00;100671.88;5304564;28;19916;-72
2023/09/20 04:09:20;;;;;;;;;;;;;;;18.92;100.00;100668.59;5303723;28;19920;-72
2023/09/20 04:11:52;;;;;;;;;;;;;;;18.86;100.00;100685.25;5300951;28;19974;-72
2023/09/20 04:14:24;;;;;;;;;;;;;;;18.85;100.00;100672.19;5307185;28;19954;-72
2023/09/20 04:16:55;;;;;;;;;;;;;;;18.78;100.00;100669.44;5307643;28;20429;-72
2023/09/20 04:19:27;;;;;;;;;;;;;;;18.73;100.00;100663.06;5299320;28;20005;-72
2023/09/20 04:22:01;;;;;;;;;;;;;;;18.78;100.00;100663.31;5310197;28;19927;-72
2023/09/20 04:24:35;;;;;;;;;;;;;;;18.71;100.00;100656.13;5300915;28;19924;-72
2023/09/20 04:27:08;;;;;;;;;;;;;;;18.73;100.00;100653.28;5308036;28;20327;-73
2023/09/20 04:29:39;;;;;;;;;;;;;;;18.71;100.00;100653.47;5312214;28;19918;-72
2023/09/20 04:32:10;;;;;;;;;;;;;;;18.68;100.00;100651.16;5307276;28;19919;-72
2023/09/20 04:34:42;;;;;;;;;;;;;;;18.65;100.00;100643.56;5302308;28;19931;-72
2023/09/20 04:37:13;;;;;;;;;;;;;;;18.67;100.00;100640.72;5306386;28;20341;-72
2023/09/20 04:39:45;;;;;;;;;;;;;;;18.65;100.00;100640.91;5302052;28;19923;-72
2023/09/20 04:42:17;;;;;;;;;;;;;;;18.60;100.00;100638.03;5308922;28;19920;-72
2023/09/20 04:44:49;;;;;;;;;;;;;;;18.60;100.00;100630.06;5302919;28;20365;-72
2023/09/20 04:47:20;;;;;;;;;;;;;;;18.58;100.00;100633.91;5305006;28;19920;-72
2023/09/20 04:49:52;;;;;;;;;;;;;;;18.55;100.00;100635.09;5303883;28;20379;-72
2023/09/20 04:52:24;;;;;;;;;;;;;;;18.54;100.00;100630.81;5307186;28;20003;-72
2023/09/20 04:54:55;;;;;;;;;;;;;;;18.52;100.00;100640.75;5295588;28;19911;-72
2023/09/20 04:57:27;;;;;;;;;;;;;;;18.54;100.00;100628.16;5304869;28;19920;-72
2023/09/20 04:59:59;;;;;;;;;;;;;;;18.52;100.00;100630.16;5308864;28;19924;-72
2023/09/20 05:02:30;;;;;;;;;;;;;;;18.53;100.00;100636.31;5315080;28;19916;-72
2023/09/20 05:05:04;;;;;;;;;;;;;;;18.46;100.00;100625.59;5310362;28;19928;-72
2023/09/20 05:07:35;;;;;;;;;;;;;;;18.46;100.00;100628.25;5291720;28;19947;-72
2023/09/20 05:10:06;;;;;;;;;;;;;;;18.46;100.00;100623.78;5306379;28;19919;-73
2023/09/20 05:12:38;;;;;;;;;;;;;;;18.40;100.00;100632.47;5308301;28;19973;-73
2023/09/20 05:15:12;;;;;;;;;;;;;;;18.41;100.00;100622.69;5314807;28;20276;-73
2023/09/20 05:17:44;;;;;;;;;;;;;;;18.40;100.00;100631.66;5307990;28;19911;-72
2023/09/20 05:20:15;;;;;;;;;;;;;;;18.43;100.00;100631.28;5307333;28;19916;-72
2023/09/20 05:22:46;;;;;;;;;;;;;;;18.40;100.00;100631.66;5311592;28;19942;-72
2023/09/20 05:25:19;;;;;;;;;;;;;;;18.39;100.00;100640.63;5303086;28;19916;-73
2023/09/20 05:27:51;;;;;;;;;;;;;;;18.41;100.00;100641.25;5305744;28;19921;-72
2023/09/20 05:30:22;;;;;;;;;;;;;;;18.39;100.00;100632.66;5300131;28;20010;-72
2023/09/20 05:32:53;;;;;;;;;;;;;;;18.38;100.00;100623.06;5304044;28;20053;-72
2023/09/20 05:35:26;;;;;;;;;;;;;;;18.35;100.00;100624.25;5308960;28;19916;-72
2023/09/20 05:37:57;;;;;;;;;;;;;;;18.38;100.00;100629.19;5313577;28;19931;-72
2023/09/20 05:40:29;;;;;;;;;;;;;;;18.36;100.00;100617.94;5307972;28;20353;-73
2023/09/20 05:43:03;;;;;;;;;;;;;;;18.40;100.00;100627.16;5310167;28;19934;-72
2023/09/20 05:45:35;;;;;;;;;;;;;;;18.39;100.00;100622.88;5317156;28;19916;-72
2023/09/20 05:48:06;;;;;;;;;;;;;;;18.41;100.00;100618.22;5305945;28;19931;-73
2023/09/20 05:50:38;;;;;;;;;;;;;;;18.43;100.00;100610.88;5310827;28;20277;-73
2023/09/20 05:53:12;;;;;;;;;;;;;;;18.41;100.00;100615.56;5310462;28;20412;-72
2023/09/20 05:55:44;;;;;;;;;;;;;;;18.41;100.00;100612.06;5304212;28;19932;-72
2023/09/20 05:58:15;;;;;;;;;;;;;;;18.40;100.00;100613.09;5302917;28;19915;-72
2023/09/20 06:00:46;;;;;;;;;;;;;;;18.39;100.00;100622.06;5308630;28;20510;-72
2023/09/20 06:03:17;;;;;;;;;;;;;;;18.41;100.00;100628.84;5309074;28;19920;-72
2023/09/20 06:05:49;;;;;;;;;;;;;;;18.41;100.00;100622.69;5304250;28;19928;-73
2023/09/20 06:08:20;;;;;;;;;;;;;;;18.42;100.00;100622.50;5304857;28;20388;-72
2023/09/20 06:10:52;;;;;;;;;;;;;;;18.43;100.00;100615.38;5309356;28;19965;-72
2023/09/20 06:13:23;;;;;;;;;;;;;;;18.41;100.00;100607.59;5305653;28;19916;-72
2023/09/20 06:15:54;;;;;;;;;;;;;;;18.44;100.00;100606.41;5308281;28;19924;-73
2023/09/20 06:18:26;;;;;;;;;;;;;;;18.48;100.00;100615.63;5308436;28;19949;-72
2023/09/20 06:20:59;;;;;;;;;;;;;;;18.49;100.00;100606.69;5307740;28;20393;-73
2023/09/20 06:23:31;;;;;;;;;;;;;;;18.49;100.00;100611.97;5309700;28;19988;-72
2023/09/20 06:26:03;;;;;;;;;;;;;;;18.55;100.00;100610.38;5307302;28;19924;-73
2023/09/20 06:28:35;;;;;;;;;;;;;;;18.57;100.00;100614.50;5310218;28;19990;-72
2023/09/20 06:31:07;;;;;;;;;;;;;;;18.59;100.00;100609.00;5300764;28;19920;-73
2023/09/20 06:33:46;;;;;;;;;;;;;;;18.64;100.00;100612.75;5307672;28;20285;-73
2023/09/20 06:36:18;;;;;;;;;;;;;;;18.63;100.00;100610.28;5305562;28;19911;-73
2023/09/20 06:38:52;;;;;;;;;;;;;;;18.71;100.00;100618.13;5306083;28;19942;-73
2023/09/20 06:41:23;;;;;;;;;;;;;;;18.75;100.00;100608.78;5305950;28;19916;-73
2023/09/20 06:43:56;;;;;;;;;;;;;;;18.79;100.00;100614.53;5309103;28;19923;-73
2023/09/20 06:46:27;;;;;;;;;;;;;;;18.86;100.00;100605.63;5307285;28;19916;-73
2023/09/20 06:48:59;;;;;;;;;;;;;;;18.96;100.00;100613.28;5301183;28;19950;-73
2023/09/20 06:51:30;;;;;;;;;;;;;;;19.04;100.00;100610.50;5308443;28;20377;-73
2023/09/20 06:54:01;;;;;;;;;;;;;;;19.09;100.00;100613.41;5309277;28;20300;-73
2023/09/20 06:56:33;;;;;;;;;;;;;;;19.16;100.00;100622.22;5305654;28;19916;-73
2023/09/20 06:59:05;;;;;;;;;;;;;;;19.28;100.00;100621.72;5306070;28;19920;-73
2023/09/20 07:01:37;;;;;;;;;;;;;;;19.35;100.00;100617.28;5302706;28;19924;-73
2023/09/20 07:04:11;;;;;;;;;;;;;;;19.46;100.00;100611.41;5305460;28;19927;-73
2023/09/20 07:06:42;;;;;;;;;;;;;;;19.51;100.00;100609.03;5300717;28;19920;-73
2023/09/20 07:09:13;;;;;;;;;;;;;;;19.56;100.00;100606.59;5303133;28;19977;-73
2023/09/20 07:11:46;;;;;;;;;;;;;;;19.61;100.00;100608.66;5306536;28;20756;-73
2023/09/20 07:14:20;;;;;;;;;;;;;;;19.67;100.00;100607.94;5307176;28;19918;-73
2023/09/20 07:16:52;;;;;;;;;;;;;;;19.71;100.00;100605.69;5306753;28;20002;-73
2023/09/20 07:19:26;;;;;;;;;;;;;;;19.66;100.00;100607.09;5302911;28;19955;-73
2023/09/20 07:21:59;;;;;;;;;;;;;;;19.80;100.00;100604.50;5302871;28;20020;-73
2023/09/20 07:24:32;;;;;;;;;;;;;;;19.89;100.00;100606.00;5302762;28;19919;-73
2023/09/20 07:27:04;;;;;;;;;;;;;;;19.93;100.00;100610.72;5306741;28;20365;-73
2023/09/20 07:29:36;;;;;;;;;;;;;;;20.04;100.00;100593.41;5306396;28;19921;-73
2023/09/20 07:32:08;;;;;;;;;;;;;;;20.10;100.00;100603.22;5303240;28;19924;-73
2023/09/20 07:34:39;;;;;;;;;;;;;;;20.09;100.00;100606.91;5290785;28;19916;-74
2023/09/20 07:37:12;;;;;;;;;;;;;;;20.20;100.00;100607.38;5307668;28;19916;-73
2023/09/20 07:39:46;;;;;;;;;;;;;;;20.25;100.00;100605.75;5306384;28;19969;-74
2023/09/20 07:42:17;;;;;;;;;;;;;;;20.27;100.00;100611.69;5306422;28;19920;-73
2023/09/20 07:44:51;;;;;;;;;;;;;;;20.32;100.00;100605.75;5303064;28;19930;-74
2023/09/20 07:47:22;;;;;;;;;;;;;;;20.37;100.00;100605.97;5312806;28;19927;-73
2023/09/20 07:49:53;;;;;;;;;;;;;;;20.39;100.00;100603.94;5306854;28;20400;-73
2023/09/20 07:52:24;;;;;;;;;;;;;;;20.48;100.00;100608.06;5303196;28;20311;-73
2023/09/20 07:54:56;;;;;;;;;;;;;;;20.45;100.00;100607.63;5310564;28;19950;-73
2023/09/20 07:57:28;;;;;;;;;;;;;;;20.51;100.00;100604.22;5312259;28;20010;-73
2023/09/20 07:59:59;;;;;;;;;;;;;;;20.35;100.00;100595.53;5301889;28;19930;-73
2023/09/20 08:02:30;;;;;;;;;;;;;;;20.53;100.00;100602.16;5302421;28;19919;-74
2023/09/20 08:05:02;;;;;;;;;;;;;;;20.61;100.00;100602.81;5300022;28;19920;-73
2023/09/20 08:07:37;;;;;;;;;;;;;;;20.67;100.00;100603.00;5304877;28;19927;-73
2023/09/20 08:10:08;;;;;;;;;;;;;;;20.71;100.00;100605.06;5302272;28;20065;-73
2023/09/20 08:12:39;;;;;;;;;;;;;;;20.74;100.00;100598.53;5304122;28;20014;-73
2023/09/20 08:15:12;;;;;;;;;;;;;;;20.71;100.00;100596.25;5305633;28;19920;-73
2023/09/20 08:20:35;;;;;;;;;;;;;;;20.87;100.00;100604.69;5304270;28;20007;-73
2023/09/20 09:00:27;;;;;;;;;;;;;;;21.98;100.00;100621.81;5303962;28;19928;-73
2023/09/20 09:02:59;;;;;;;;;;;;;;;22.14;100.00;100628.56;5304790;28;19917;-73
2023/09/20 09:05:31;;;;;;;;;;;;;;;22.17;100.00;100628.94;5307441;28;19934;-74
2023/09/20 09:08:03;;;;;;;;;;;;;;;22.14;100.00;100625.88;5296625;28;20299;-73
2023/09/20 09:10:34;;;;;;;;;;;;;;;22.16;100.00;100623.81;5306244;28;19918;-73
2023/09/20 09:13:05;;;;;;;;;;;;;;;22.21;100.00;100621.34;5303348;28;20546;-74
2023/09/20 09:15:37;;;;;;;;;;;;;;;22.27;100.00;100620.47;5298727;28;19916;-73
2023/09/20 09:18:18;;;;;;;;;;;;;;;22.30;100.00;100620.88;5304127;28;19946;-73
2023/09/20 09:20:51;;;;;;;;;;;;;;;22.25;100.00;100614.53;5308893;28;19916;-74
2023/09/20 09:23:37;;;;;;;;;;;;;;;22.33;100.00;100616.97;5301517;28;19924;-73
2023/09/20 09:26:09;;;;;;;;;;;;;;;22.39;100.00;100608.13;5308107;28;20513;-73
2023/09/20 09:28:41;;;;;;;;;;;;;;;22.41;100.00;100623.91;5304740;28;19978;-73
2023/09/20 09:31:13;;;;;;;;;;;;;;;22.45;100.00;100622.44;5296567;28;19924;-74
2023/09/20 09:33:45;;;;;;;;;;;;;;;22.55;100.00;100620.16;5303870;28;19915;-74
2023/09/20 09:36:16;;;;;;;;;;;;;;;22.55;100.00;100606.78;5307573;28;20355;-73
2023/09/20 09:38:47;;;;;;;;;;;;;;;22.52;100.00;100613.38;5309709;28;19911;-74
2023/09/20 09:41:18;;;;;;;;;;;;;;;22.56;100.00;100613.75;5308552;28;20011;-74
2023/09/20 09:43:55;;;;;;;;;;;;;;;22.73;100.00;100608.72;5313336;28;19920;-73
2023/09/20 09:46:27;;;;;;;;;;;;;;;22.74;100.00;100603.16;5301519;28;19942;-74
2023/09/20 09:48:58;;;;;;;;;;;;;;;22.77;100.00;100605.41;5314298;28;19924;-74
2023/09/20 09:51:32;;;;;;;;;;;;;;;22.86;100.00;100595.28;5309084;28;20014;-74
2023/09/20 09:54:04;;;;;;;;;;;;;;;22.88;100.00;100595.91;5307376;28;20277;-73
2023/09/20 09:56:37;;;;;;;;;;;;;;;22.93;100.00;100598.75;5309000;28;19919;-73
2023/09/20 09:59:10;;;;;;;;;;;;;;;23.09;100.00;100594.72;5304688;28;20035;-74
2023/09/20 10:01:41;;;;;;;;;;;;;;;23.20;100.00;100590.50;5311585;28;20369;-74
2023/09/20 10:04:17;;;;;;;;;;;;;;;23.27;100.00;100593.94;5305623;28;19935;-73
2023/09/20 10:06:53;;;;;;;;;;;;;;;23.27;98.70;100581.41;5301186;28;19926;-74
2023/09/20 10:09:27;;;;;;;;;;;;;;;23.33;97.19;100582.34;5315452;28;19916;-74
2023/09/20 10:11:58;;;;;;;;;;;;;;;23.38;95.70;100582.53;5308166;28;20319;-74
2023/09/20 10:14:30;;;;;;;;;;;;;;;23.42;95.70;100590.94;5317064;28;19967;-74
2023/09/20 10:17:02;;;;;;;;;;;;;;;23.49;96.16;100579.13;5307246;28;20289;-74
2023/09/20 10:19:34;;;;;;;;;;;;;;;23.65;96.41;100574.22;5306688;28;19920;-74
2023/09/20 10:22:09;;;;;;;;;;;;;;;23.73;92.33;100584.66;5313693;28;19916;-74
2023/09/20 10:24:50;;;;;;;;;;;;;;;23.97;95.20;100580.25;5309459;28;19920;-74
2023/09/20 10:27:22;;;;;;;;;;;;;;;24.06;91.68;100570.06;5304441;28;19916;-74
2023/09/20 10:30:05;;;;;;;;;;;;;;;24.06;87.80;100575.44;5287351;28;19926;-75
2023/09/20 10:32:47;;;;;;;;;;;;;;;24.13;87.86;100576.13;5310502;28;19916;-75
2023/09/20 10:35:32;;;;;;;;;;;;;;;24.20;86.05;100572.31;5304498;28;19920;-75
2023/09/20 10:38:11;;;;;;;;;;;;;;;24.35;88.37;100558.53;5310598;28;20277;-74
2023/09/20 10:40:45;;;;;;;;;;;;;;;24.25;81.70;100556.41;5306951;28;19977;-74
2023/09/20 10:43:32;;;;;;;;;;;;;;;24.15;81.99;100555.31;5304589;28;19977;-75
2023/09/20 10:46:09;;;;;;;;;;;;;;;24.14;82.26;100551.03;5288825;28;19918;-74
2023/09/20 10:48:50;;;;;;;;;;;;;;;24.15;85.31;100544.63;5304923;28;19920;-74
2023/09/20 10:51:44;;;;;;;;;;;;;;;24.12;84.12;100555.78;5310485;28;19973;-74
2023/09/20 10:54:18;;;;;;;;;;;;;;;24.15;84.50;100536.59;5311852;28;19959;-75
2023/09/20 10:56:52;;;;;;;;;;;;;;;24.21;85.66;100539.19;5304056;28;19927;-74
2023/09/20 10:59:25;;;;;;;;;;;;;;;24.25;84.31;100539.56;5302888;28;19964;-74
2023/09/20 11:02:01;;;;;;;;;;;;;;;24.31;85.37;100540.47;5309089;28;19908;-74
2023/09/20 11:04:32;;;;;;;;;;;;;;;24.23;82.53;100534.41;5305281;28;20300;-74
2023/09/20 11:07:04;;;;;;;;;;;;;;;24.29;83.67;100530.00;5304811;28;20688;-74
2023/09/20 11:09:38;;;;;;;;;;;;;;;24.35;82.42;100528.28;5313680;28;19920;-74
2023/09/20 11:12:11;;;;;;;;;;;;;;;24.41;83.14;100536.25;5304782;28;20426;-74
2023/09/20 11:14:44;;;;;;;;;;;;;;;24.38;79.64;100536.66;5307851;28;20044;-74
2023/09/20 11:17:16;;;;;;;;;;;;;;;24.36;79.27;100533.41;5302984;28;20203;-74
2023/09/20 11:19:48;;;;;;;;;;;;;;;24.33;79.52;100528.50;5304595;28;20357;-73
2023/09/20 11:22:19;;;;;;;;;;;;;;;24.39;80.31;100527.59;5310205;28;19981;-74
2023/09/20 11:24:51;;;;;;;;;;;;;;;24.43;78.26;100520.75;5308133;28;19920;-74
2023/09/20 11:27:23;;;;;;;;;;;;;;;24.46;77.70;100525.66;5312753;28;19920;-74
2023/09/20 11:30:04;;;;;;;;;;;;;;;24.45;78.35;100526.69;5303060;28;19912;-74
2023/09/20 11:32:37;;;;;;;;;;;;;;;24.43;78.30;100528.78;5283019;28;19917;-74
2023/09/20 11:35:09;;;;;;;;;;;;;;;24.30;76.71;100528.97;5308091;28;19920;-74
2023/09/20 11:37:40;;;;;;;;;;;;;;;24.39;79.99;100526.78;5304101;28;19926;-74
2023/09/20 11:40:12;;;;;;;;;;;;;;;24.30;77.11;100522.78;5304929;28;20007;-74
2023/09/20 11:42:44;;;;;;;;;;;;;;;24.33;78.00;100536.53;5305861;28;19916;-74
2023/09/20 11:45:16;;;;;;;;;;;;;;;24.25;78.38;100531.50;5313508;28;20299;-74
2023/09/20 11:47:50;;;;;;;;;;;;;;;24.20;78.27;100529.50;5300370;28;19920;-74
2023/09/20 11:50:22;;;;;;;;;;;;;;;24.28;80.26;100529.19;5310182;28;19966;-74
2023/09/20 11:52:53;;;;;;;;;;;;;;;24.26;79.53;100533.94;5307747;28;20369;-74
2023/09/20 11:55:25;;;;;;;;;;;;;;;24.37;79.03;100529.69;5301977;28;20018;-74
2023/09/20 11:57:58;;;;;;;;;;;;;;;24.49;81.25;100530.56;5307836;28;19973;-74
2023/09/20 12:00:29;;;;;;;;;;;;;;;24.43;77.17;100534.13;5306153;28;19927;-73
2023/09/20 12:03:00;;;;;;;;;;;;;;;24.27;75.23;100534.75;5306179;28;19916;-73
2023/09/20 12:05:33;;;;;;;;;;;;;;;24.25;77.19;100535.00;5298244;28;19939;-73
2023/09/20 12:08:06;;;;;;;;;;;;;;;24.22;76.71;100540.81;5298667;28;19925;-73
2023/09/20 12:10:37;;;;;;;;;;;;;;;24.14;77.16;100532.28;5309941;28;19916;-74
2023/09/20 12:13:08;;;;;;;;;;;;;;;24.08;77.95;100519.81;5301033;28;19920;-73
2023/09/20 12:15:42;;;;;;;;;;;;;;;24.17;78.18;100527.31;5313931;28;19954;-73
2023/09/20 12:18:14;;;;;;;;;;;;;;;24.05;76.58;100529.09;5301498;28;20270;-73
2023/09/20 12:20:48;;;;;;;;;;;;;;;24.07;76.83;100513.63;5302722;28;19961;-73
2023/09/20 12:23:19;;;;;;;;;;;;;;;24.05;76.95;100518.38;5306900;28;19926;-73
2023/09/20 12:25:50;;;;;;;;;;;;;;;24.06;77.58;100513.88;5307542;28;19912;-73
2023/09/20 12:28:23;;;;;;;;;;;;;;;24.07;78.01;100518.19;5296443;28;19927;-73
2023/09/20 12:30:54;;;;;;;;;;;;;;;23.95;76.44;100510.91;5301684;28;19958;-73
2023/09/20 12:33:25;;;;;;;;;;;;;;;23.99;78.06;100511.28;5305990;28;20317;-73
2023/09/20 12:35:59;;;;;;;;;;;;;;;24.17;80.61;100503.22;5301462;28;19926;-73
2023/09/20 12:38:31;;;;;;;;;;;;;;;24.30;78.39;100502.19;5296997;28;19920;-73
2023/09/20 12:41:02;;;;;;;;;;;;;;;24.30;77.17;100502.19;5307240;28;19927;-73
2023/09/20 12:43:33;;;;;;;;;;;;;;;24.28;76.19;100501.59;5302594;28;19928;-73
2023/09/20 12:46:04;;;;;;;;;;;;;;;24.25;77.92;100494.84;5302909;28;19945;-73
2023/09/20 12:48:37;;;;;;;;;;;;;;;24.32;78.48;100497.44;5305312;28;19912;-73
2023/09/20 12:51:08;;;;;;;;;;;;;;;24.39;77.60;100489.31;5296967;28;19962;-73
2023/09/20 12:53:39;;;;;;;;;;;;;;;24.42;77.27;100483.50;5302469;28;19963;-73
2023/09/20 12:56:13;;;;;;;;;;;;;;;24.18;74.77;100479.94;5303355;28;20371;-73
2023/09/20 12:58:44;;;;;;;;;;;;;;;24.31;76.07;100477.03;5305785;28;19915;-73
2023/09/20 13:01:15;;;;;;;;;;;;;;;24.15;74.61;100473.16;5304051;28;20323;-73
2023/09/20 13:03:47;;;;;;;;;;;;;;;24.19;77.18;100479.69;5306361;28;19924;-73
2023/09/20 13:06:18;;;;;;;;;;;;;;;24.12;76.60;100470.94;5302286;28;19980;-73
2023/09/20 13:08:49;;;;;;;;;;;;;;;24.01;77.46;100469.84;5306042;28;19920;-72
2023/09/20 13:11:20;;;;;;;;;;;;;;;24.09;79.02;100470.56;5302072;28;19923;-73
2023/09/20 13:13:52;;;;;;;;;;;;;;;24.16;79.30;100463.28;5307142;28;19926;-73
2023/09/20 13:16:25;;;;;;;;;;;;;;;24.19;79.73;100455.59;5313530;28;19919;-72
2023/09/20 13:18:56;;;;;;;;;;;;;;;24.08;77.40;100444.88;5308070;28;20296;-74
2023/09/20 13:21:28;;;;;;;;;;;;;;;24.12;77.17;100454.06;5308930;28;19923;-73
2023/09/20 13:23:59;;;;;;;;;;;;;;;24.17;78.72;100443.47;5309497;28;19938;-73
2023/09/20 13:26:30;;;;;;;;;;;;;;;24.20;78.89;100435.00;5303023;28;19958;-73
2023/09/20 13:29:01;;;;;;;;;;;;;;;24.14;77.31;100431.41;5301740;28;20366;-72
2023/09/20 13:31:35;;;;;;;;;;;;;;;24.15;77.07;100425.00;5307507;28;19939;-73
2023/09/20 13:34:14;;;;;;;;;;;;;;;24.22;77.80;100419.53;5305478;28;19916;-73
2023/09/20 13:36:45;;;;;;;;;;;;;;;24.26;76.78;100421.53;5309561;28;20372;-73